Time;durP1;ratioP1;P1;durP2;ratioP2;P2;SDS_P1;SDS_P2;PMS_P1;PMS_P2;Temp;Humidity;BMP_temperature;BMP_pressure;BME280_temperature;BME280_humidity;BME280_pressure;Samples;Min_cycle;Max_cycle;Signal;HPM_P1;HPM_P2
2023/01/30 00:04:23;;;;;;;5.72;2.88;;;;;;;;;;21002102;28;20048;-57
2023/01/30 00:14:45;;;;;;;5.78;3.05;;;;;;;;;;21001546;28;20492;-58
2023/01/30 00:25:07;;;;;;;4.63;3.00;;;;;;;;;;21000487;28;20098;-57
2023/01/30 00:35:28;;;;;;;4.65;3.03;;;;;;;;;;21000909;28;20423;-55
2023/01/30 00:56:31;;;;;;;4.95;3.25;;;;;;;;;;20998363;28;20056;-57
2023/01/30 01:06:52;;;;;;;22.77;9.95;;;;;;;;;;20982946;28;20048;-60
2023/01/30 01:17:14;;;;;;;4.57;2.97;;;;;;;;;;20996846;28;20045;-59
2023/01/30 01:27:23;;;;;;;4.50;3.13;;;;;;;;;;20995805;28;20056;-59
2023/01/30 01:37:27;;;;;;;5.32;3.25;;;;;;;;;;20979264;28;20048;-61
2023/01/30 01:47:36;;;;;;;5.28;3.30;;;;;;;;;;20978388;28;20056;-59
2023/01/30 01:58:01;;;;;;;4.32;2.97;;;;;;;;;;20998108;28;20499;-57
2023/01/30 02:08:17;;;;;;;4.88;3.25;;;;;;;;;;20995218;28;20449;-56
2023/01/30 02:18:21;;;;;;;6.53;3.22;;;;;;;;;;21010528;28;20060;-56
2023/01/30 02:28:30;;;;;;;4.53;2.70;;;;;;;;;;21008758;28;20056;-56
2023/01/30 02:38:52;;;;;;;5.00;3.10;;;;;;;;;;21007891;28;20055;-57
2023/01/30 02:49:15;;;;;;;4.32;2.70;;;;;;;;;;21007452;28;20106;-56
2023/01/30 02:59:32;;;;;;;6.70;3.30;;;;;;;;;;21008159;28;20540;-57
2023/01/30 03:09:38;;;;;;;5.25;3.28;;;;;;;;;;21007154;28;20088;-60
2023/01/30 03:19:50;;;;;;;5.15;3.30;;;;;;;;;;21007684;28;20040;-55
2023/01/30 03:29:57;;;;;;;4.75;2.90;;;;;;;;;;21005352;28;20586;-59
2023/01/30 03:40:07;;;;;;;7.10;4.32;;;;;;;;;;21004755;28;20048;-60
2023/01/30 03:50:13;;;;;;;4.70;3.15;;;;;;;;;;21003394;28;20484;-57
2023/01/30 04:00:27;;;;;;;5.63;3.80;;;;;;;;;;20985251;28;20048;-56
2023/01/30 04:10:40;;;;;;;7.70;4.15;;;;;;;;;;21002049;28;20098;-56
2023/01/30 04:21:02;;;;;;;7.00;3.30;;;;;;;;;;21001119;28;20404;-56
2023/01/30 04:31:20;;;;;;;6.50;3.40;;;;;;;;;;20999380;28;20053;-56
2023/01/30 04:41:34;;;;;;;4.60;2.90;;;;;;;;;;20998990;28;20051;-60
2023/01/30 04:51:58;;;;;;;7.95;2.92;;;;;;;;;;20998916;28;20476;-57
2023/01/30 05:02:00;;;;;;;5.97;3.58;;;;;;;;;;20998443;28;20404;-55
2023/01/30 05:12:04;;;;;;;5.60;3.58;;;;;;;;;;20996167;28;20048;-59
2023/01/30 05:22:11;;;;;;;9.10;4.72;;;;;;;;;;20997728;28;20381;-58
2023/01/30 05:32:17;;;;;;;5.97;3.70;;;;;;;;;;20998560;28;20453;-55
2023/01/30 05:42:25;;;;;;;9.40;3.45;;;;;;;;;;21012195;28;20052;-56
2023/01/30 05:52:32;;;;;;;7.95;4.55;;;;;;;;;;20994448;28;20547;-58
2023/01/30 06:02:36;;;;;;;6.13;4.15;;;;;;;;;;21011902;28;20514;-59
2023/01/30 06:12:42;;;;;;;;;;;;;;;;;;21011511;28;20044;-61
2023/01/30 06:22:50;;;;;;;7.40;3.83;;;;;;;;;;21010530;28;20272;-60
2023/01/30 06:33:01;;;;;;;5.72;3.50;;;;;;;;;;21009660;28;20468;-60
2023/01/30 06:43:09;;;;;;;6.03;3.80;;;;;;;;;;21008057;28;20550;-57
2023/01/30 06:53:17;;;;;;;6.78;4.47;;;;;;;;;;21006203;28;20056;-60
2023/01/30 07:03:28;;;;;;;8.98;4.00;;;;;;;;;;21006085;28;20053;-59
2023/01/30 07:13:49;;;;;;;6.70;3.67;;;;;;;;;;21007391;28;20055;-55
2023/01/30 07:24:04;;;;;;;6.38;3.65;;;;;;;;;;21004239;28;20056;-58
2023/01/30 07:34:13;;;;;;;9.50;4.30;;;;;;;;;;21002514;28;20556;-57
2023/01/30 07:44:23;;;;;;;6.95;4.85;;;;;;;;;;21003704;28;20045;-58
2023/01/30 07:54:41;;;;;;;9.07;4.88;;;;;;;;;;21002132;28;20056;-57
2023/01/30 08:04:55;;;;;;;8.95;4.60;;;;;;;;;;21002257;28;20436;-58
2023/01/30 08:15:04;;;;;;;10.93;5.85;;;;;;;;;;21000033;28;20048;-59
2023/01/30 08:25:17;;;;;;;11.27;5.05;;;;;;;;;;21000806;28;20496;-60
2023/01/30 08:35:27;;;;;;;10.90;5.47;;;;;;;;;;20999832;28;20048;-60
2023/01/30 08:45:39;;;;;;;9.95;5.47;;;;;;;;;;20997937;28;20106;-57
2023/01/30 08:55:44;;;;;;;15.52;6.57;;;;;;;;;;20999464;28;20052;-60
2023/01/30 09:05:47;;;;;;;17.25;7.00;;;;;;;;;;20997125;28;20048;-59
2023/01/30 09:15:57;;;;;;;17.70;6.70;;;;;;;;;;20981169;28;20048;-62
2023/01/30 09:26:07;;;;;;;12.40;5.32;;;;;;;;;;20996956;28;20045;-55
2023/01/30 09:36:14;;;;;;;9.88;5.53;;;;;;;;;;20996293;28;20182;-57
2023/01/30 09:46:48;;;;;;;10.70;5.53;;;;;;;;;;20995472;28;20048;-56
2023/01/30 09:56:51;;;;;;;9.70;4.83;;;;;;;;;;20995470;28;20044;-58
2023/01/30 10:07:10;;;;;;;10.60;5.60;;;4.40;54.40;;;;;;20995853;28;20045;-61
2023/01/30 10:17:40;;;;;;;12.02;5.07;;;4.50;54.40;;;;;;20995439;28;20404;-61
2023/01/30 10:28:19;;;;;;;8.82;4.88;;;;;;;;;;20992770;28;20090;-56
2023/01/30 10:38:21;;;;;;;28.55;15.77;;;;;;;;;;20753889;28;20050;-55
2023/01/30 10:48:25;;;;;;;8.48;5.05;;;;;;;;;;20751512;28;20510;-57
2023/01/30 10:58:43;;;;;;;6.57;4.10;;;5.70;52.70;;;;;;20734810;28;20096;-60
2023/01/30 11:08:45;;;;;;;5.32;3.70;;;5.80;52.70;;;;;;20844025;28;20052;-58
2023/01/30 11:18:49;;;;;;;6.05;3.85;;;6.00;53.80;;;;;;21005091;28;20054;-57
2023/01/30 11:28:51;;;;;;;8.20;4.93;;;6.20;54.10;;;;;;21008938;28;20503;-55
2023/01/30 11:39:00;;;;;;;7.35;4.47;;;6.40;54.10;;;;;;21005183;28;20483;-57
2023/01/30 11:49:14;;;;;;;6.93;4.18;;;6.50;53.50;;;;;;21002749;28;20067;-59
2023/01/30 11:59:37;;;;;;;7.10;4.78;;;6.70;53.60;;;;;;21001111;28;20052;-57
2023/01/30 12:09:38;;;;;;;8.05;5.50;;;7.00;53.20;;;;;;21000758;28;20132;-57
2023/01/30 12:20:01;;;;;;;8.75;5.18;;;7.20;52.30;;;;;;21001436;28;20045;-57
2023/01/30 12:30:09;;;;;;;8.68;4.82;;;7.40;51.90;;;;;;20999186;28;20044;-57
2023/01/30 12:40:39;;;;;;;10.63;5.38;;;7.60;51.10;;;;;;21003884;28;20055;-57
2023/01/30 12:51:05;;;;;;;9.15;5.53;;;7.70;50.50;;;;;;20744803;28;20067;-58
2023/01/30 13:01:09;;;;;;;;;;;8.00;50.10;;;;;;20743666;28;20053;-58
2023/01/30 13:11:20;;;;;;;8.50;5.18;;;7.90;49.90;;;;;;20741315;28;19956;-57
2023/01/30 13:21:33;;;;;;;5.40;3.08;;;8.20;48.70;;;;;;20795011;28;20084;-60
2023/01/30 13:31:38;;;;;;;5.10;3.53;;;8.20;46.80;;;;;;20913683;28;20052;-59
2023/01/30 13:41:44;;;;;;;4.73;3.10;;;8.20;46.00;;;;;;20911125;28;20129;-60
2023/01/30 13:51:56;;;;;;;7.13;4.35;;;8.30;44.60;;;;;;20981121;28;20056;-59
2023/01/30 14:02:09;;;;;;;7.03;4.50;;;8.60;45.40;;;;;;20992895;28;20072;-56
2023/01/30 14:12:22;;;;;;;5.55;3.70;;;8.60;44.20;;;;;;21010822;28;20044;-58
2023/01/30 14:22:25;;;;;;;5.78;3.90;;;8.70;43.70;;;;;;21010747;28;20052;-57
2023/01/30 14:32:55;;;;;;;7.30;4.25;;;8.70;43.20;;;;;;20991293;28;20500;-58
2023/01/30 14:43:13;;;;;;;7.93;5.25;;;8.80;43.30;;;;;;21008071;28;20049;-59
2023/01/30 14:53:15;;;;;;;9.77;4.30;;;8.80;42.80;;;;;;21006769;28;20408;-59
2023/01/30 15:03:19;;;;;;;8.50;3.90;;;8.80;42.20;;;;;;21006211;28;20052;-58
2023/01/30 15:13:47;;;;;;;7.93;3.85;;;8.90;43.00;;;;;;20987807;28;20084;-56
2023/01/30 15:24:12;;;;;;;6.68;4.50;;;8.90;42.30;;;;;;21006074;28;20400;-58
2023/01/30 15:34:19;;;;;;;5.25;4.18;;;8.90;42.20;;;;;;21005110;28;20408;-57
2023/01/30 15:44:30;;;;;;;12.93;6.63;;;8.80;41.60;;;;;;21003994;28;20044;-59
2023/01/30 15:54:32;;;;;;;6.80;4.43;;;8.80;41.50;;;;;;21001249;28;20140;-59
2023/01/30 16:04:33;;;;;;;8.43;5.03;;;8.70;41.90;;;;;;21001234;28;20097;-59
2023/01/30 16:14:36;;;;;;;8.15;5.05;;;8.70;42.60;;;;;;21001101;28;20052;-60
2023/01/30 16:24:41;;;;;;;7.25;4.50;;;8.60;42.00;;;;;;21000324;28;20406;-60
2023/01/30 16:34:43;;;;;;;;;;;8.60;41.70;;;;;;21000094;28;20487;-59
2023/01/30 16:44:45;;;;;;;17.02;9.48;;;8.50;42.60;;;;;;20998411;28;19924;-60
2023/01/30 16:54:55;;;;;;;5.25;3.95;;;8.40;42.50;;;;;;20997172;28;20141;-59
2023/01/30 17:05:15;;;;;;;5.88;3.90;;;8.50;42.40;;;;;;20997118;28;20051;-61
2023/01/30 17:15:17;;;;;;;8.23;4.85;;;8.40;42.60;;;;;;20997398;28;20088;-62
2023/01/30 17:25:21;;;;;;;6.03;4.07;;;8.30;43.40;;;;;;20997503;28;20404;-61
2023/01/30 17:35:23;;;;;;;6.55;4.38;;;8.30;43.80;;;;;;20996718;28;20423;-60
2023/01/30 17:45:25;;;;;;;13.43;9.43;;;8.20;44.30;;;;;;20996659;28;20415;-61
2023/01/30 17:55:27;;;;;;;6.93;5.00;;;8.10;45.00;;;;;;20996248;28;20051;-61
2023/01/30 18:05:28;;;;;;;8.68;5.47;;;8.10;45.80;;;;;;20995657;28;20403;-59
2023/01/30 18:15:31;;;;;;;8.75;4.57;;;8.00;46.80;;;;;;20993997;28;20052;-59
2023/01/30 18:25:33;;;;;;;11.20;6.53;;;7.90;48.00;;;;;;20996030;28;20070;-58
2023/01/30 18:35:38;;;;;;;;;;;7.80;48.50;;;;;;20976774;28;20048;-58
2023/01/30 18:45:39;;;;;;;15.45;6.78;;;7.70;49.20;;;;;;20984755;28;19932;-58
2023/01/30 18:55:49;;;;;;;15.50;7.95;;;7.70;49.70;;;;;;21007777;28;20204;-58
2023/01/30 19:05:51;;;;;;;12.23;7.30;;;7.60;50.00;;;;;;21005469;28;20132;-59
2023/01/30 19:15:57;;;;;;;22.00;11.40;;;7.50;50.20;;;;;;21005916;28;20132;-60
2023/01/30 19:25:59;;;;;;;18.05;9.63;;;7.30;50.50;;;;;;21005273;28;20110;-58
2023/01/30 19:36:11;;;;;;;20.20;12.27;;;7.30;50.60;;;;;;21005252;28;20110;-59
2023/01/30 19:46:14;;;;;;;15.40;8.63;;;;;;;;;;21003544;28;20102;-59
2023/01/30 19:56:20;;;;;;;14.95;7.68;;;;;;;;;;21001193;28;20084;-57
2023/01/30 20:06:24;;;;;;;15.10;8.82;;;;;;;;;;21002526;28;20052;-58
2023/01/30 20:16:28;;;;;;;15.68;7.65;;;;;;;;;;21001389;28;20075;-57
2023/01/30 20:26:34;;;;;;;48.30;29.17;;;;;;;;;;21001572;28;20044;-60
2023/01/30 20:36:36;;;;;;;13.82;8.05;;;;;;;;;;20999160;28;20080;-61
2023/01/30 20:46:40;;;;;;;38.97;17.23;;;;;;;;;;20999324;28;20045;-60
2023/01/30 20:56:46;;;;;;;15.88;9.02;;;;;;;;;;20998657;28;20423;-57
2023/01/30 21:06:48;;;;;;;33.75;19.02;;;;;;;;;;20996362;28;20079;-59
2023/01/30 21:16:50;;;;;;;12.50;5.40;;;;;;;;;;20997924;28;20503;-56
2023/01/30 21:26:53;;;;;;;14.00;8.43;;;;;;;;;;20997419;28;20048;-59
2023/01/30 21:47:16;;;;;;;13.82;6.32;;;;;;;;;;20995620;28;20082;-61
2023/01/30 21:57:17;;;;;;;9.32;5.00;;;;;;;;;;20995169;28;20190;-57
2023/01/30 22:07:19;;;;;;;8.07;4.85;;;;;;;;;;20994722;28;20052;-57
2023/01/30 22:17:21;;;;;;;7.97;4.72;;;;;;;;;;21000644;28;20102;-56
2023/01/30 22:27:23;;;;;;;10.23;5.20;;;;;;;;;;21010945;28;20068;-57
2023/01/30 22:37:26;;;;;;;9.45;5.30;;;;;;;;;;21008974;28;20136;-60
2023/01/30 22:47:28;;;;;;;10.80;4.97;;;;;;;;;;21008399;28;20048;-57
2023/01/30 22:57:31;;;;;;;7.13;4.53;;;;;;;;;;21008347;28;20458;-56
2023/01/30 23:07:34;;;;;;;9.10;5.32;;;;;;;;;;21007927;28;20059;-56
2023/01/30 23:27:58;;;;;;;8.45;5.80;;;;;;;;;;21007650;28;20395;-56
2023/01/30 23:38:17;;;;;;;9.32;5.60;;;;;;;;;;21006643;28;20091;-57
2023/01/30 23:48:19;;;;;;;8.27;5.25;;;;;;;;;;20990264;28;20067;-59
2023/01/30 23:58:23;;;;;;;10.75;6.40;;;;;;;;;;21003881;28;20048;-58
